Time;durP1;ratioP1;P1;durP2;ratioP2;P2;SDS_P1;SDS_P2;PMS_P1;PMS_P2;Temp;Humidity;BMP_temperature;BMP_pressure;BME280_temperature;BME280_humidity;BME280_pressure;Samples;Min_cycle;Max_cycle;Signal;HPM_P1;HPM_P2
2023/01/25 00:01:52;;;;;;;39.55;28.85;;;;;;;-0.36;100.00;66740.28;5010592;28;20038;-87
2023/01/25 00:04:19;;;;;;;39.70;24.92;;;;;;;-0.37;100.00;66739.16;5010954;28;20049;-87
2023/01/25 00:06:45;;;;;;;37.30;29.02;;;;;;;-0.40;100.00;66738.97;5009252;28;20054;-87
2023/01/25 00:09:10;;;;;;;38.22;26.10;;;;;;;-0.39;100.00;66737.47;5010725;28;20081;-87
2023/01/25 00:11:36;;;;;;;39.72;28.50;;;;;;;-0.42;100.00;66736.16;5011449;28;20042;-87
2023/01/25 00:14:02;;;;;;;41.08;28.75;;;;;;;-0.46;100.00;66735.41;5010248;28;20065;-86
2023/01/25 00:16:28;;;;;;;37.88;26.35;;;;;;;-0.46;100.00;66729.59;5010542;28;20040;-86
2023/01/25 00:18:53;;;;;;;40.95;29.27;;;;;;;-0.46;100.00;66732.22;5003266;28;20129;-88
2023/01/25 00:21:20;;;;;;;42.25;28.90;;;;;;;;;;5007873;28;20041;-87
2023/01/25 00:23:46;;;;;;;39.80;26.77;;;;;;;;;;5008429;28;20714;-87
2023/01/25 00:26:11;;;;;;;39.17;25.63;;;;;;;-0.46;100.00;66729.59;4991046;28;20045;-87
2023/01/25 00:28:37;;;;;;;42.55;30.50;;;;;;;-0.50;100.00;66730.31;5008318;28;20092;-87
2023/01/25 00:31:03;;;;;;;41.85;32.28;;;;;;;;;;5006140;28;20038;-87
2023/01/25 00:33:28;;;;;;;44.03;29.48;;;;;;;;;;5008976;28;20049;-87
2023/01/25 00:35:55;;;;;;;44.85;30.90;;;;;;;-0.53;100.00;66721.72;5007049;28;20552;-87
2023/01/25 00:38:29;;;;;;;44.83;30.98;;;;;;;-0.48;100.00;66722.69;4991615;28;20049;-88
2023/01/25 00:40:54;;;;;;;46.63;30.90;;;;;;;;;;5008826;28;20046;-87
2023/01/25 00:43:19;;;;;;;43.47;28.15;;;;;;;-0.55;100.00;66722.09;5006052;28;20050;-87
2023/01/25 00:45:45;;;;;;;46.30;34.15;;;;;;;-0.54;100.00;66720.59;5010075;28;20044;-87
2023/01/25 00:48:10;;;;;;;46.25;33.05;;;;;;;;;;5008085;28;20113;-87
2023/01/25 00:50:36;;;;;;;47.60;33.33;;;;;;;-0.54;100.00;66721.16;5008345;28;20061;-87
2023/01/25 00:53:02;;;;;;;47.35;31.33;;;;;;;-0.57;100.00;66717.25;4989459;28;20083;-87
2023/01/25 00:55:27;;;;;;;47.83;32.58;;;;;;;-0.55;100.00;66719.47;5009164;28;20046;-87
2023/01/25 00:57:53;;;;;;;47.22;34.55;;;;;;;-0.58;100.00;66716.66;5008533;28;20050;-87
2023/01/25 01:00:18;;;;;;;47.33;32.38;;;;;;;-0.58;100.00;66721.34;4992170;28;20065;-87
2023/01/25 01:02:43;;;;;;;48.67;33.10;;;;;;;-0.59;100.00;66720.78;4999533;28;20037;-85
2023/01/25 01:05:09;;;;;;;46.63;33.08;;;;;;;-0.62;100.00;66714.22;5023075;28;20042;-85
2023/01/25 01:07:34;;;;;;;45.65;31.45;;;;;;;-0.59;100.00;66717.59;4997110;28;20034;-85
2023/01/25 01:09:59;;;;;;;48.08;32.50;;;;;;;-0.62;100.00;66712.19;4987034;28;20056;-85
2023/01/25 01:12:25;;;;;;;46.80;33.70;;;;;;;-0.65;100.00;66713.47;4989895;28;20050;-85
2023/01/25 01:14:50;;;;;;;49.72;35.78;;;;;;;-0.66;100.00;66701.88;4987590;28;20049;-86
2023/01/25 01:17:15;;;;;;;49.92;33.50;;;;;;;;;;4988988;28;20042;-85
2023/01/25 01:19:41;;;;;;;48.65;32.60;;;;;;;;;;4988267;28;20077;-85
2023/01/25 01:22:06;;;;;;;45.65;31.48;;;;;;;-0.63;100.00;66710.47;4977790;28;20097;-85
2023/01/25 01:24:32;;;;;;;49.78;34.75;;;;;;;-0.61;100.00;66712.72;4976567;28;20406;-85
2023/01/25 01:26:57;;;;;;;48.63;31.13;;;;;;;-0.64;100.00;66709.91;4988370;28;20487;-86
2023/01/25 01:29:23;;;;;;;50.38;33.78;;;;;;;-0.63;100.00;66705.25;4989140;28;20387;-86
2023/01/25 01:31:50;;;;;;;48.58;33.10;;;;;;;-0.68;100.00;66700.78;4983948;28;20031;-86
2023/01/25 01:34:16;;;;;;;43.45;25.27;;;;;;;-0.74;100.00;66699.25;4982229;28;20518;-85
2023/01/25 01:36:42;;;;;;;47.67;32.63;;;;;;;-0.73;100.00;66700.38;4988415;28;20038;-86
2023/01/25 01:39:07;;;;;;;47.33;30.90;;;;;;;-0.73;100.00;66699.81;4993196;28;20435;-85
2023/01/25 01:41:33;;;;;;;41.45;27.38;;;;;;;-0.76;100.00;66697.00;4988173;28;20043;-86
2023/01/25 01:43:59;;;;;;;49.22;31.50;;;;;;;-0.74;100.00;66701.88;4983848;28;20050;-85
2023/01/25 01:46:38;;;;;;;44.95;29.33;;;;;;;-0.81;100.00;66694.00;4982354;28;20035;-85
2023/01/25 01:49:06;;;;;;;43.13;24.75;;;;;;;;;;4982517;28;20124;-85
2023/01/25 01:51:40;;;;;;;44.35;30.15;;;;;;;-0.82;100.00;66684.47;4985814;28;20057;-85
2023/01/25 01:54:15;;;;;;;46.60;32.97;;;;;;;-0.82;100.00;66690.25;4987069;28;20046;-86
2023/01/25 01:56:59;;;;;;;45.70;30.52;;;;;;;-0.86;100.00;66687.81;4986009;28;20034;-86
2023/01/25 01:59:29;;;;;;;42.60;26.85;;;;;;;-0.89;100.00;66681.84;4968731;28;20050;-85
2023/01/25 02:01:55;;;;;;;46.20;33.47;;;;;;;;;;4979154;28;20221;-85
2023/01/25 02:04:23;;;;;;;43.25;31.30;;;;;;;-0.99;100.00;66673.78;4986791;28;20133;-86
2023/01/25 02:06:57;;;;;;;42.72;29.15;;;;;;;-0.89;100.00;66682.41;4984961;28;20034;-85
2023/01/25 02:09:25;;;;;;;44.28;31.80;;;;;;;-0.89;100.00;66687.06;4985968;28;20445;-85
2023/01/25 02:11:52;;;;;;;45.35;33.53;;;;;;;-0.93;100.00;66683.13;4985694;28;20034;-85
2023/01/25 02:14:18;;;;;;;44.67;32.60;;;;;;;-0.89;100.00;66681.84;4980302;28;20046;-85
2023/01/25 02:16:44;;;;;;;42.03;29.40;;;;;;;-0.92;100.00;66679.03;4982814;28;20038;-86
2023/01/25 02:19:16;;;;;;;44.13;29.60;;;;;;;-0.95;100.00;66678.25;4981425;28;20402;-86
2023/01/25 02:21:43;;;;;;;38.75;23.77;;;;;;;;;;4985176;28;20383;-85
2023/01/25 02:24:28;;;;;;;45.40;30.70;;;;;;;-0.97;100.00;66673.41;4981035;28;20098;-85
2023/01/25 02:26:53;;;;;;;43.28;27.90;;;;;;;-0.97;100.00;66673.97;4985055;28;20062;-85
2023/01/25 02:29:22;;;;;;;43.10;29.75;;;;;;;-0.96;100.00;66677.16;4985311;28;20120;-85
2023/01/25 02:31:51;;;;;;;45.13;30.40;;;;;;;-0.93;100.00;66683.69;4986029;28;20038;-85
2023/01/25 02:34:17;;;;;;;42.40;27.92;;;;;;;-1.00;100.00;66675.84;4986180;28;20052;-85
2023/01/25 02:36:42;;;;;;;43.17;27.88;;;;;;;-1.00;100.00;66670.59;4985382;28;20043;-86
2023/01/25 02:39:14;;;;;;;46.17;30.52;;;;;;;-0.97;100.00;66676.59;4986569;28;20097;-86
2023/01/25 02:41:41;;;;;;;43.65;27.27;;;;;;;-0.93;100.00;66683.69;4981915;28;20129;-85
2023/01/25 02:44:14;;;;;;;44.03;26.98;;;;;;;-0.96;100.00;66674.53;4980370;28;20049;-85
2023/01/25 02:46:40;;;;;;;46.25;28.63;;;;;;;;;;4979451;28;20113;-85
2023/01/25 02:49:07;;;;;;;48.75;33.47;;;;;;;-1.01;100.00;66668.91;4981680;28;20189;-85
2023/01/25 02:51:33;;;;;;;48.30;32.50;;;;;;;;;;4982294;28;20045;-86
2023/01/25 02:54:00;;;;;;;49.65;32.30;;;;;;;-0.95;100.00;66675.66;4984078;28;20109;-85
2023/01/25 02:56:26;;;;;;;46.88;31.35;;;;;;;-0.98;100.00;66678.09;4984030;28;20712;-85
2023/01/25 02:58:52;;;;;;;48.08;33.92;;;;;;;-0.97;100.00;66673.97;4984351;28;20046;-85
2023/01/25 03:01:18;;;;;;;44.05;25.83;;;;;;;-0.99;100.00;66673.78;4986867;28;20042;-85
2023/01/25 03:03:44;;;;;;;44.78;27.00;;;;;;;-1.01;100.00;66668.91;4988542;28;20108;-84
2023/01/25 03:06:10;;;;;;;46.65;30.23;;;;;;;-1.06;100.00;66663.88;4985629;28;20053;-85
2023/01/25 03:08:35;;;;;;;48.47;33.40;;;;;;;-1.09;100.00;66660.50;4988367;28;20030;-85
2023/01/25 03:11:01;;;;;;;40.47;24.75;;;;;;;;;;4987612;28;20034;-85
2023/01/25 03:13:27;;;;;;;41.60;27.90;;;;;;;;;;4983779;28;20043;-85
2023/01/25 03:15:57;;;;;;;45.63;30.98;;;;;;;;;;4969027;28;20120;-86
2023/01/25 03:18:23;;;;;;;43.00;26.52;;;;;;;-1.15;100.00;66659.53;4987600;28;20034;-85
2023/01/25 03:20:48;;;;;;;46.33;32.58;;;;;;;-1.08;100.00;66661.06;4989444;28;20034;-85
2023/01/25 03:23:13;;;;;;;45.33;30.75;;;;;;;-1.07;100.00;66662.75;4991966;28;20506;-86
2023/01/25 03:25:39;;;;;;;46.33;30.38;;;;;;;-1.08;100.00;66663.66;4990312;28;20093;-85
2023/01/25 03:28:04;;;;;;;43.20;26.83;;;;;;;-1.09;100.00;66659.94;4990180;28;20062;-85
2023/01/25 03:30:29;;;;;;;46.28;33.03;;;;;;;-1.15;100.00;66654.31;4991982;28;20650;-86
2023/01/25 03:32:55;;;;;;;43.50;29.73;;;;;;;-1.19;100.00;66655.03;4980874;28;20098;-85
2023/01/25 03:35:20;;;;;;;44.90;30.00;;;;;;;-1.17;100.00;66651.50;4975604;28;20112;-85
2023/01/25 03:37:45;;;;;;;44.70;30.15;;;;;;;-1.17;100.00;66656.75;4990964;28;20046;-86
2023/01/25 03:40:11;;;;;;;45.60;31.23;;;;;;;-1.15;100.00;66656.38;4977727;28;20042;-85
2023/01/25 03:42:36;;;;;;;47.10;33.55;;;;;;;-1.11;100.00;66657.69;4991181;28;20498;-85
2023/01/25 03:45:02;;;;;;;47.22;31.63;;;;;;;-1.07;100.00;66664.78;4989562;28;20046;-85
2023/01/25 03:47:28;;;;;;;50.25;33.25;;;;;;;-1.08;100.00;66655.84;4991339;28;20034;-85
2023/01/25 03:49:53;;;;;;;48.35;29.63;;;;;;;-1.09;100.00;66660.50;4990450;28;20131;-86
2023/01/25 03:52:18;;;;;;;48.60;32.45;;;;;;;-1.09;100.00;66665.16;4990329;28;20125;-85
2023/01/25 03:54:44;;;;;;;48.08;33.53;;;;;;;-1.12;100.00;66662.34;4990893;28;20057;-85
2023/01/25 03:57:09;;;;;;;47.08;31.63;;;;;;;-1.10;100.00;66658.81;4990162;28;20045;-86
2023/01/25 03:59:35;;;;;;;49.40;31.02;;;;;;;-1.11;100.00;66662.91;4991777;28;20085;-85
2023/01/25 04:02:01;;;;;;;46.28;30.30;;;;;;;-1.10;100.00;66658.81;4989856;28;20524;-85
2023/01/25 04:04:27;;;;;;;42.83;25.55;;;;;;;-1.11;100.00;66657.69;4989707;28;20518;-86
2023/01/25 04:06:52;;;;;;;46.78;31.40;;;;;;;-1.08;100.00;66664.22;4988069;28;20053;-85
2023/01/25 04:09:18;;;;;;;43.58;28.02;;;;;;;-1.10;100.00;66658.81;4976812;28;20042;-86
2023/01/25 04:11:43;;;;;;;47.35;31.65;;;;;;;-1.13;100.00;66656.56;4990307;28;20070;-85
2023/01/25 04:14:09;;;;;;;47.35;31.60;;;;;;;-1.13;100.00;66659.16;4988313;28;23159;-86
2023/01/25 04:16:34;;;;;;;51.25;34.47;;;;;;;-1.13;100.00;66656.00;4990133;28;20074;-85
2023/01/25 04:19:00;;;;;;;48.72;33.08;;;;;;;-1.15;100.00;66659.53;4990097;28;20526;-87
2023/01/25 04:21:25;;;;;;;46.70;29.77;;;;;;;-1.10;100.00;66658.81;4990088;28;20121;-86
2023/01/25 04:23:51;;;;;;;47.60;34.58;;;;;;;-1.13;100.00;66656.56;4977199;28;20130;-86
2023/01/25 04:26:16;;;;;;;36.97;21.40;;;;;;;-1.15;100.00;66653.78;4989600;28;20042;-86
2023/01/25 04:28:41;;;;;;;48.03;30.35;;;;;;;-1.18;100.00;66650.38;4983951;28;20066;-86
2023/01/25 04:31:07;;;;;;;43.33;29.30;;;;;;;;;;4972638;28;20034;-86
2023/01/25 04:33:32;;;;;;;45.25;29.02;;;;;;;;;;4984666;28;20039;-86
2023/01/25 04:35:58;;;;;;;47.35;30.08;;;;;;;;;;4984461;28;20060;-85
2023/01/25 04:38:24;;;;;;;42.42;27.77;;;;;;;-1.24;100.00;66638.97;4988161;28;20054;-85
2023/01/25 04:40:50;;;;;;;44.17;32.47;;;;;;;-1.26;100.00;66649.25;4985978;28;20045;-85
2023/01/25 04:43:18;;;;;;;40.28;26.92;;;;;;;-1.25;100.00;66645.69;4988788;28;20070;-85
2023/01/25 04:45:44;;;;;;;43.22;26.02;;;;;;;-1.28;100.00;66644.94;4987917;28;20103;-86
2023/01/25 04:48:11;;;;;;;43.72;31.42;;;;;;;-1.27;100.00;66640.84;4985346;28;20050;-85
2023/01/25 04:50:38;;;;;;;43.88;29.85;;;;;;;-1.27;100.00;66640.28;4986737;28;20782;-85
2023/01/25 04:53:05;;;;;;;44.33;28.90;;;;;;;-1.32;100.00;66634.66;4985162;28;20701;-86
2023/01/25 04:55:30;;;;;;;41.45;23.20;;;;;;;-1.32;100.00;66635.22;4989301;28;20046;-86
2023/01/25 04:57:55;;;;;;;39.67;26.40;;;;;;;-1.33;100.00;66634.09;4987693;28;20498;-86
2023/01/25 05:00:21;;;;;;;43.50;29.15;;;;;;;;;;4982861;28;20650;-85
2023/01/25 05:02:46;;;;;;;46.47;32.25;;;;;;;;;;4988776;28;20050;-86
2023/01/25 05:05:12;;;;;;;44.90;29.77;;;;;;;-1.32;100.00;66637.84;4988685;28;20085;-85
2023/01/25 05:07:37;;;;;;;45.33;29.30;;;;;;;-1.34;100.00;66632.97;4990002;28;20072;-85
2023/01/25 05:10:04;;;;;;;45.60;30.50;;;;;;;-1.34;100.00;66635.59;4990368;28;20520;-85
2023/01/25 05:12:29;;;;;;;46.67;30.02;;;;;;;-1.33;100.00;66636.72;4990538;28;20995;-85
2023/01/25 05:14:55;;;;;;;44.55;29.33;;;;;;;-1.30;100.00;66640.06;4982295;28;20049;-85
2023/01/25 05:17:20;;;;;;;46.80;29.05;;;;;;;-1.30;100.00;66642.13;4984314;28;20050;-85
2023/01/25 05:19:45;;;;;;;47.75;32.38;;;;;;;-1.36;100.00;66631.28;4989819;28;20053;-85
2023/01/25 05:22:16;;;;;;;46.78;29.00;;;;;;;-1.32;100.00;66634.66;4989092;28;20125;-85
2023/01/25 05:24:44;;;;;;;41.95;25.50;;;;;;;-1.38;100.00;66628.50;4987177;28;20042;-85
2023/01/25 05:27:09;;;;;;;45.72;29.60;;;;;;;;;;4984003;28;20741;-84
2023/01/25 05:29:40;;;;;;;47.78;27.50;;;;;;;-1.38;100.00;66631.09;4987161;28;20046;-85
2023/01/25 05:32:12;;;;;;;44.03;24.02;;;;;;;-1.44;100.00;66621.75;4987077;28;20046;-86
2023/01/25 05:34:38;;;;;;;46.92;29.42;;;;;;;-1.38;100.00;66628.50;4983071;28;20073;-84
2023/01/25 05:37:05;;;;;;;43.30;21.85;;;;;;;-1.43;100.00;66622.88;4981329;28;20502;-84
2023/01/25 05:39:30;;;;;;;49.35;32.90;;;;;;;-1.45;100.00;66620.63;4988540;28;20414;-84
2023/01/25 05:41:55;;;;;;;49.10;30.10;;;;;;;-1.40;100.00;66626.25;4985456;28;20042;-84
2023/01/25 05:44:21;;;;;;;49.53;32.85;;;;;;;-1.42;100.00;66626.59;4983458;28;20125;-84
2023/01/25 05:46:47;;;;;;;46.78;27.25;;;;;;;-1.39;100.00;66629.97;4986940;28;20046;-83
2023/01/25 05:49:12;;;;;;;49.47;30.85;;;;;;;;;;4987604;28;20105;-83
2023/01/25 05:51:38;;;;;;;50.42;32.80;;;;;;;;;;4987903;28;20097;-83
2023/01/25 05:54:04;;;;;;;43.85;24.33;;;;;;;-1.43;100.00;66623.44;4983684;28;20046;-83
2023/01/25 05:56:30;;;;;;;50.83;28.67;;;;;;;;;;4980357;28;20050;-83
2023/01/25 05:58:57;;;;;;;52.40;34.00;;;;;;;-1.43;100.00;66626.03;4984700;28;20043;-84
2023/01/25 06:01:24;;;;;;;52.67;35.85;;;;;;;-1.44;100.00;66621.75;4980029;28;20062;-84
2023/01/25 06:03:49;;;;;;;54.92;34.42;;;;;;;-1.42;100.00;66626.59;4985201;28;20092;-84
2023/01/25 06:06:15;;;;;;;52.65;31.85;;;;;;;-1.41;100.00;66625.13;4982810;28;20039;-84
2023/01/25 06:08:40;;;;;;;51.50;33.17;;;;;;;-1.45;100.00;66625.84;4974683;28;20061;-84
2023/01/25 06:11:10;;;;;;;49.97;27.15;;;;;;;-1.47;100.00;66618.94;4981631;28;20058;-84
2023/01/25 06:13:36;;;;;;;55.95;38.28;;;;;;;-1.54;100.00;66611.09;4976309;28;20074;-84
2023/01/25 06:16:01;;;;;;;55.28;38.30;;;;;;;-1.55;100.00;66609.41;4982504;28;20047;-84
2023/01/25 06:18:28;;;;;;;58.70;38.95;;;;;;;;;;4983893;28;20042;-84
2023/01/25 06:20:55;;;;;;;43.30;24.63;;;;;;;;;;4973287;28;20050;-83
2023/01/25 06:23:20;;;;;;;52.88;35.10;;;;;;;-1.57;100.00;66610.31;4987576;28;20497;-83
2023/01/25 06:25:45;;;;;;;52.88;34.47;;;;;;;-1.54;100.00;66610.53;4979856;28;20053;-84
2023/01/25 06:28:11;;;;;;;57.47;37.35;;;;;;;-1.57;100.00;66607.16;4988311;28;20038;-83
2023/01/25 06:30:36;;;;;;;56.58;37.70;;;;;;;-1.57;100.00;66607.72;4987812;28;20090;-83
2023/01/25 06:33:01;;;;;;;58.10;33.88;;;;;;;;;;4987716;28;20038;-83
2023/01/25 06:35:28;;;;;;;56.63;33.95;;;;;;;-1.51;100.00;66614.44;4985123;28;20038;-83
2023/01/25 06:37:56;;;;;;;57.63;38.33;;;;;;;-1.44;100.00;66621.75;4987896;28;20133;-84
2023/01/25 06:40:21;;;;;;;60.78;38.33;;;;;;;;;;4989208;28;20457;-84
2023/01/25 06:42:47;;;;;;;60.15;36.85;;;;;;;-1.46;100.00;66619.50;4984026;28;20046;-84
2023/01/25 06:45:12;;;;;;;66.55;42.78;;;;;;;-1.56;100.00;66611.44;4983660;28;20043;-85
2023/01/25 06:47:39;;;;;;;60.80;39.08;;;;;;;-1.53;100.00;66614.25;4986789;28;20042;-84
2023/01/25 06:50:04;;;;;;;62.03;40.78;;;;;;;-1.55;100.00;66609.41;4985139;28;20047;-85
2023/01/25 06:52:30;;;;;;;60.90;40.22;;;;;;;-1.60;100.00;66606.97;4987741;28;20046;-84
2023/01/25 06:54:56;;;;;;;59.45;34.08;;;;;;;;;;4989581;28;20076;-84
2023/01/25 06:57:21;;;;;;;62.65;40.83;;;;;;;-1.62;100.00;66607.31;4987750;28;20046;-85
2023/01/25 06:59:46;;;;;;;63.72;39.40;;;;;;;;;;4988660;28;20090;-85
2023/01/25 07:02:15;;;;;;;64.25;40.50;;;;;;;-1.63;100.00;66604.16;4989991;28;20073;-83
2023/01/25 07:04:40;;;;;;;65.78;39.67;;;;;;;-1.61;100.00;66603.78;4989915;28;20134;-84
2023/01/25 07:07:09;;;;;;;66.63;42.08;;;;;;;-1.68;100.00;66595.94;4984813;28;20138;-84
2023/01/25 07:09:35;;;;;;;62.72;39.72;;;;;;;-1.62;100.00;66604.72;4987098;28;20051;-84
2023/01/25 07:12:01;;;;;;;64.95;39.50;;;;;;;;;;4988960;28;20105;-84
2023/01/25 07:14:26;;;;;;;66.50;41.13;;;;;;;-1.63;100.00;66600.97;4990456;28;20042;-85
2023/01/25 07:16:52;;;;;;;67.95;37.58;;;;;;;-1.62;100.00;66602.09;4989553;28;20477;-84
2023/01/25 07:19:17;;;;;;;65.20;41.58;;;;;;;-1.61;100.00;66605.84;4989791;28;20046;-84
2023/01/25 07:21:42;;;;;;;66.97;43.25;;;;;;;;;;4989844;28;20418;-84
2023/01/25 07:24:14;;;;;;;66.60;41.13;;;;;;;-1.58;100.00;66606.59;4990739;28;20070;-85
2023/01/25 07:26:39;;;;;;;60.17;32.40;;;;;;;-1.60;100.00;66607.53;4987948;28;20043;-84
2023/01/25 07:29:05;;;;;;;63.47;39.38;;;;;;;;;;4988999;28;20046;-84
2023/01/25 07:31:30;;;;;;;67.30;39.83;;;;;;;-1.51;100.00;66613.91;4990227;28;20073;-84
2023/01/25 07:33:57;;;;;;;67.93;42.85;;;;;;;-1.61;100.00;66606.41;4989386;28;20042;-84
2023/01/25 07:36:23;;;;;;;62.97;35.65;;;;;;;-1.55;100.00;66612.00;4983919;28;20042;-84
2023/01/25 07:38:53;;;;;;;75.53;44.17;;;;;;;-1.57;100.00;66609.78;4990764;28;20042;-85
2023/01/25 07:41:18;;;;;;;66.80;41.47;;;;;;;;;;4982764;28;20050;-85
2023/01/25 07:43:44;;;;;;;66.00;42.42;;;;;;;-1.70;100.00;66598.34;4986414;28;20057;-85
2023/01/25 07:46:12;;;;;;;70.28;44.17;;;;;;;-1.67;100.00;66596.47;5008361;28;20042;-85
2023/01/25 07:48:39;;;;;;;64.38;40.90;;;;;;;-1.65;100.00;66601.34;5010540;28;20049;-86
2023/01/25 07:51:15;;;;;;;65.75;42.85;;;;;;;-1.71;100.00;66597.78;5009801;28;20114;-85
2023/01/25 07:53:42;;;;;;;66.40;40.92;;;;;;;-1.67;100.00;66597.06;4999807;28;20162;-85
2023/01/25 07:56:10;;;;;;;57.00;30.83;;;;;;;-1.71;100.00;66597.22;4973460;28;20069;-85
2023/01/25 07:58:35;;;;;;;73.45;42.88;;;;;;;-1.63;100.00;66600.97;4993204;28;20628;-86
2023/01/25 08:01:08;;;;;;;62.97;39.22;;;;;;;-1.67;100.00;66597.06;4991934;28;20046;-85
2023/01/25 08:03:35;;;;;;;63.53;40.50;;;;;;;-1.74;100.00;66591.81;5008736;28;20045;-85
2023/01/25 08:06:00;;;;;;;63.88;42.20;;;;;;;-1.70;100.00;66598.91;4987866;28;20048;-85
2023/01/25 08:08:26;;;;;;;61.92;39.95;;;;;;;-1.68;100.00;66595.94;4990542;28;20729;-85
2023/01/25 08:10:51;;;;;;;64.93;39.38;;;;;;;-1.68;100.00;66595.94;4997338;28;20045;-85
2023/01/25 08:13:16;;;;;;;56.97;28.90;;;;;;;;;;4986035;28;20053;-85
2023/01/25 08:15:42;;;;;;;54.10;29.20;;;;;;;-1.69;100.00;66594.81;5008610;28;20485;-85
2023/01/25 08:18:08;;;;;;;61.17;38.45;;;;;;;-1.71;100.00;66594.59;4986647;28;20567;-85
2023/01/25 08:20:33;;;;;;;68.55;40.78;;;;;;;;;;5007741;28;20046;-85
2023/01/25 08:22:58;;;;;;;61.45;36.05;;;;;;;;;;5007685;28;20050;-86
2023/01/25 08:25:24;;;;;;;62.63;36.45;;;;;;;;;;4989215;28;20050;-85
2023/01/25 08:27:51;;;;;;;65.47;42.28;;;;;;;-1.73;100.00;66590.31;4991081;28;20494;-85
2023/01/25 08:30:16;;;;;;;66.45;41.35;;;;;;;-1.74;100.00;66593.84;5002652;28;20042;-85
2023/01/25 08:32:41;;;;;;;62.08;40.08;;;;;;;-1.70;100.00;66593.13;5009056;28;20056;-85
2023/01/25 08:35:07;;;;;;;60.50;34.25;;;;;;;-1.67;100.00;66597.06;5006875;28;20080;-85
2023/01/25 08:37:33;;;;;;;54.92;28.75;;;;;;;-1.69;100.00;66594.81;5007856;28;20045;-85
2023/01/25 08:39:58;;;;;;;60.20;36.97;;;;;;;-1.75;100.00;66590.69;5004433;28;20046;-85
2023/01/25 08:42:24;;;;;;;64.35;38.92;;;;;;;-1.70;100.00;66595.72;5008322;28;20138;-85
2023/01/25 08:44:50;;;;;;;63.10;40.22;;;;;;;-1.76;100.00;66586.38;4988352;28;20667;-85
2023/01/25 08:47:15;;;;;;;64.85;42.88;;;;;;;-1.82;100.00;66580.75;5003595;28;20044;-85
2023/01/25 08:49:41;;;;;;;63.58;40.30;;;;;;;-1.80;100.00;66582.47;5007335;28;20057;-85
2023/01/25 08:52:06;;;;;;;63.92;40.33;;;;;;;-1.83;100.00;66579.09;5006191;28;20048;-85
2023/01/25 08:54:31;;;;;;;63.40;41.30;;;;;;;-1.74;100.00;66588.63;5007860;28;20050;-85
2023/01/25 08:56:57;;;;;;;62.60;40.50;;;;;;;-1.70;100.00;66595.72;5004856;28;20046;-85
2023/01/25 08:59:22;;;;;;;60.55;37.22;;;;;;;;;;5007133;28;20052;-85
2023/01/25 09:01:47;;;;;;;62.75;40.15;;;;;;;-1.69;100.00;66596.88;5000779;28;20050;-85
2023/01/25 09:04:13;;;;;;;52.33;26.45;;;;;;;-1.69;100.00;66594.81;5006674;28;20041;-85
2023/01/25 09:06:39;;;;;;;56.53;39.10;;;;;;;-1.79;100.00;66578.34;5006202;28;20574;-86
2023/01/25 09:09:05;;;;;;;55.58;37.05;;;;;;;-1.80;100.00;66581.91;4984854;28;20052;-86
2023/01/25 09:11:33;;;;;;;66.43;36.20;;;;;;;-1.69;100.00;66594.81;5005667;28;20049;-85
2023/01/25 09:13:58;;;;;;;63.58;40.08;;;;;;;-1.78;100.00;66584.72;5006470;28;20041;-85
2023/01/25 09:16:27;;;;;;;59.97;39.90;;;;;;;-1.83;100.00;66579.09;4991052;28;20050;-85
2023/01/25 09:18:54;;;;;;;47.72;24.48;;;;;;;-1.82;100.00;66580.22;4995719;28;20128;-85
2023/01/25 09:21:20;;;;;;;62.85;39.35;;;;;;;-1.79;100.00;66591.41;4988219;28;20042;-85
2023/01/25 09:23:50;;;;;;;58.78;38.58;;;;;;;-1.80;100.00;66585.06;4989097;28;20052;-85
2023/01/25 09:26:16;;;;;;;58.30;37.70;;;;;;;-1.79;100.00;66583.03;4979352;28;20099;-85
2023/01/25 09:28:45;;;;;;;50.55;27.77;;;;;;;-1.86;100.00;66575.72;5007309;28;20045;-86
2023/01/25 09:31:10;;;;;;;55.45;35.72;;;;;;;-1.80;100.00;66582.47;5006026;28;20069;-84
2023/01/25 09:33:36;;;;;;;57.92;37.90;;;;;;;;;;5006788;28;20066;-85
2023/01/25 09:36:02;;;;;;;57.40;37.20;;;;;;;-1.80;100.00;66581.91;5004479;28;20046;-85
2023/01/25 09:38:28;;;;;;;53.35;28.73;;;;;;;-1.84;100.00;66578.53;5006923;28;20042;-85
2023/01/25 09:41:00;;;;;;;52.85;31.40;;;;;;;;;;5001407;28;20049;-85
2023/01/25 09:43:52;;;;;;;59.00;34.67;;;;;;;-1.92;100.00;66569.00;4991337;28;20050;-85
2023/01/25 09:46:35;;;;;;;55.28;29.40;;;;;;;;;;5002169;28;20061;-85
2023/01/25 09:49:20;;;;;;;59.70;38.97;;;;;;;-1.85;100.00;66579.44;4987961;28;20050;-85
2023/01/25 09:52:07;;;;;;;56.70;33.30;;;;;;;-1.86;100.00;66571.06;5003773;28;20046;-85
2023/01/25 09:54:38;;;;;;;58.92;36.75;;;;;;;-1.90;100.00;66566.59;4994973;28;20088;-85
2023/01/25 09:57:14;;;;;;;48.38;26.10;;;;;;;-1.86;100.00;66578.91;5004425;28;20412;-85
2023/01/25 09:59:40;;;;;;;55.55;34.05;;;;;;;;;;5005502;28;20120;-86
2023/01/25 10:02:25;;;;;;;44.25;21.45;;;;;;;-1.89;100.00;66572.38;4999617;28;21339;-85
2023/01/25 10:04:55;;;;;;;58.13;37.38;;;;;;;-1.86;100.00;66578.91;4988147;28;20045;-84
2023/01/25 10:07:43;;;;;;;53.65;33.47;;;;;;;-1.89;100.00;66572.38;4995948;28;20064;-85
2023/01/25 10:10:17;;;;;;;57.50;34.10;;;;;;;;;;5004284;28;20048;-85
2023/01/25 10:12:42;;;;;;;51.40;27.52;;;;;;;-1.91;100.00;66570.13;5006259;28;20132;-85
2023/01/25 10:15:37;;;;;;;54.45;35.15;;;;;;;-1.94;100.00;66566.75;5003882;28;20060;-85
2023/01/25 10:18:24;;;;;;;55.75;35.65;;;;;;;-2.00;100.00;66563.19;4994185;28;20100;-85
2023/01/25 10:20:55;;;;;;;52.03;30.33;;;;;;;-1.86;100.00;66578.34;5004719;28;20037;-85
2023/01/25 10:23:47;;;;;;;53.15;33.45;;;;;;;-1.84;100.00;66577.97;5004137;28;20123;-85
2023/01/25 10:26:28;;;;;;;58.92;31.55;;;;;;;-1.82;100.00;66582.81;5004611;28;20065;-85
2023/01/25 10:29:12;;;;;;;57.55;36.53;;;;;;;-1.87;100.00;66577.19;5005022;28;20046;-85
2023/01/25 10:32:13;;;;;;;52.15;29.17;;;;;;;-1.83;100.00;66579.09;4976078;28;20045;-85
2023/01/25 10:34:45;;;;;;;50.92;27.40;;;;;;;-1.81;100.00;66581.34;4972251;28;20536;-85
2023/01/25 10:37:14;;;;;;;59.95;35.25;;;;;;;-1.80;100.00;66582.47;5001861;28;20046;-86
2023/01/25 10:39:53;;;;;;;54.05;30.25;;;;;;;-1.78;100.00;66584.72;5005237;28;20517;-85
2023/01/25 10:42:21;;;;;;;58.85;37.58;;;;;;;-1.78;100.00;66584.72;5003544;28;22788;-85
2023/01/25 10:44:46;;;;;;;53.65;30.38;;;;;;;-1.83;100.00;66579.66;5005978;28;20123;-85
2023/01/25 10:47:27;;;;;;;59.42;37.05;;;;;;;-1.81;100.00;66581.34;5001481;28;20514;-85
2023/01/25 10:49:53;;;;;;;45.83;23.35;;;;;;;;;;5001364;28;20052;-85
2023/01/25 10:52:20;;;;;;;54.70;28.75;;;;;;;;;;5005085;28;20060;-85
2023/01/25 10:55:04;;;;;;;46.25;26.75;;;;;;;-1.92;100.00;66571.59;5004390;28;20066;-85
2023/01/25 10:57:31;;;;;;;53.33;32.50;;;;;;;-1.99;100.00;66561.13;4970734;28;20561;-85
2023/01/25 10:59:59;;;;;;;64.32;38.10;;;;;;;-1.98;100.00;66562.28;5005933;28;20307;-85
2023/01/25 11:02:39;;;;;;;60.97;32.57;;;;;;;-1.96;100.00;66564.50;4982723;28;20545;-86
2023/01/25 11:05:17;;;;;;;39.72;18.10;;;;;;;-2.06;100.00;66554.41;5004244;28;20197;-85
2023/01/25 11:07:42;;;;;;;61.42;37.28;;;;;;;-1.95;100.00;66568.78;5004352;28;20053;-86
2023/01/25 11:10:27;;;;;;;60.25;38.00;;;;;;;-1.86;100.00;66575.72;4986942;28;20490;-85
2023/01/25 11:13:11;;;;;;;61.75;32.47;;;;;;;;;;5005174;28;20046;-85
2023/01/25 11:15:37;;;;;;;66.50;40.65;;;;;;;-1.87;100.00;66577.78;4955448;28;20398;-84
2023/01/25 11:18:11;;;;;;;61.00;35.25;;;;;;;-1.84;100.00;66578.53;5005027;28;20037;-86
2023/01/25 11:20:36;;;;;;;63.35;35.72;;;;;;;;;;5003107;28;20406;-85
2023/01/25 11:23:02;;;;;;;58.53;31.08;;;;;;;;;;5004649;28;20060;-85
2023/01/25 11:25:29;;;;;;;58.58;32.78;;;;;;;-1.94;100.00;66569.91;5004331;28;20718;-85
2023/01/25 11:28:16;;;;;;;62.35;35.00;;;;;;;-1.96;100.00;66564.50;5005371;28;20041;-85
2023/01/25 11:30:42;;;;;;;74.97;40.70;;;;;;;-1.82;100.00;66580.22;4988787;28;20042;-85
2023/01/25 11:33:11;;;;;;;66.60;39.22;;;;;;;-1.87;100.00;66574.59;5002985;28;20048;-85
2023/01/25 11:35:48;;;;;;;66.40;38.72;;;;;;;-1.82;100.00;66583.38;5003810;28;20050;-85
2023/01/25 11:38:18;;;;;;;67.55;41.20;;;;;;;-1.83;100.00;66581.69;4994346;28;20089;-85
2023/01/25 11:41:17;;;;;;;69.57;42.88;;;;;;;-1.65;100.00;66601.34;4986632;28;20046;-85